Time;durP1;ratioP1;P1;durP2;ratioP2;P2;SDS_P1;SDS_P2;PMS_P1;PMS_P2;Temp;Humidity;BMP_temperature;BMP_pressure;BME280_temperature;BME280_humidity;BME280_pressure;Samples;Min_cycle;Max_cycle;Signal;HPM_P1;HPM_P2
2023/12/03 00:01:31;;;;;;;33.83;16.02;;;2.60;99.90;;;;;;5068218;28;20506;-77
2023/12/03 00:03:57;;;;;;;41.55;19.17;;;2.60;99.90;;;;;;5082415;28;20479;-77
2023/12/03 00:06:22;;;;;;;43.80;19.27;;;2.60;99.90;;;;;;5074673;28;20040;-77
2023/12/03 00:08:48;;;;;;;42.88;19.58;;;2.50;99.90;;;;;;5073621;28;20017;-77
2023/12/03 00:11:14;;;;;;;43.00;19.88;;;2.50;99.90;;;;;;5081241;28;20395;-77
2023/12/03 00:13:39;;;;;;;42.60;20.27;;;2.50;99.90;;;;;;5080328;28;20057;-77
2023/12/03 00:16:05;;;;;;;41.60;20.80;;;2.50;99.90;;;;;;5072968;28;20482;-77
2023/12/03 00:18:31;;;;;;;48.75;22.08;;;2.50;99.90;;;;;;5074632;28;20031;-76
2023/12/03 00:20:57;;;;;;;49.78;23.58;;;2.50;99.90;;;;;;5078778;28;20027;-77
2023/12/03 00:23:22;;;;;;;52.22;24.80;;;2.50;99.90;;;;;;5079552;28;20027;-77
2023/12/03 00:25:48;;;;;;;51.72;24.52;;;2.50;99.90;;;;;;5084434;28;20052;-77
2023/12/03 00:28:13;;;;;;;54.83;25.30;;;2.50;99.90;;;;;;5071526;28;20806;-77
2023/12/03 00:30:39;;;;;;;57.50;26.05;;;2.50;99.90;;;;;;5073156;28;20031;-77
2023/12/03 00:33:05;;;;;;;57.38;26.15;;;2.50;99.90;;;;;;5075129;28;20028;-77
2023/12/03 00:35:30;;;;;;;59.22;26.80;;;2.50;99.90;;;;;;5065161;28;20112;-77
2023/12/03 00:37:56;;;;;;;57.00;26.13;;;2.50;99.90;;;;;;5079693;28;20024;-77
2023/12/03 00:40:21;;;;;;;59.55;25.45;;;2.50;99.90;;;;;;5085648;28;20487;-77
2023/12/03 00:42:47;;;;;;;57.28;26.75;;;2.40;99.90;;;;;;5083411;28;20059;-77
2023/12/03 00:45:13;;;;;;;55.50;25.63;;;2.40;99.90;;;;;;5077784;28;20108;-77
2023/12/03 00:47:38;;;;;;;56.47;24.73;;;2.40;99.90;;;;;;5072217;28;20450;-76
2023/12/03 00:50:04;;;;;;;57.10;24.85;;;2.40;99.90;;;;;;5069964;28;20483;-76
2023/12/03 00:52:30;;;;;;;57.45;25.27;;;2.40;99.90;;;;;;5080959;28;20434;-76
2023/12/03 00:54:56;;;;;;;54.65;23.90;;;2.30;99.90;;;;;;5074306;28;20025;-76
2023/12/03 00:57:21;;;;;;;53.13;24.20;;;2.30;99.90;;;;;;5072147;28;20032;-76
2023/12/03 00:59:47;;;;;;;54.55;24.70;;;2.30;99.90;;;;;;5069796;28;20033;-76
2023/12/03 01:02:12;;;;;;;52.20;23.67;;;2.30;99.90;;;;;;5076129;28;20027;-76
2023/12/03 01:04:38;;;;;;;54.53;24.10;;;2.20;99.90;;;;;;5077160;28;20541;-76
2023/12/03 01:07:03;;;;;;;49.47;23.63;;;2.20;99.90;;;;;;5073627;28;20028;-76
2023/12/03 01:09:30;;;;;;;49.75;22.70;;;2.20;99.90;;;;;;5079080;28;20020;-76
2023/12/03 01:11:57;;;;;;;47.15;22.08;;;2.20;99.90;;;;;;5072854;28;20104;-76
2023/12/03 01:14:23;;;;;;;47.78;21.98;;;2.20;99.90;;;;;;5071126;28;20044;-76
2023/12/03 01:16:49;;;;;;;44.15;20.92;;;2.20;99.90;;;;;;5074546;28;20411;-76
2023/12/03 01:19:15;;;;;;;48.30;22.15;;;2.10;99.90;;;;;;5083050;28;20040;-76
2023/12/03 01:21:41;;;;;;;48.67;22.30;;;2.10;99.90;;;;;;5080553;28;20024;-76
2023/12/03 01:24:06;;;;;;;44.25;21.65;;;2.10;99.90;;;;;;5071344;28;20036;-77
2023/12/03 01:26:32;;;;;;;46.35;23.65;;;2.00;99.90;;;;;;5075885;28;20020;-76
2023/12/03 01:28:58;;;;;;;46.67;22.98;;;2.00;99.90;;;;;;5082316;28;20028;-76
2023/12/03 01:31:24;;;;;;;48.95;24.08;;;2.00;99.90;;;;;;5086682;28;20025;-76
2023/12/03 01:33:49;;;;;;;49.83;23.50;;;2.00;99.90;;;;;;5056287;28;20067;-76
2023/12/03 01:36:15;;;;;;;44.05;23.10;;;2.00;99.90;;;;;;5068170;28;20487;-76
2023/12/03 01:38:40;;;;;;;48.47;24.13;;;2.00;99.90;;;;;;5076663;28;20047;-76
2023/12/03 01:41:06;;;;;;;50.50;25.60;;;2.00;99.90;;;;;;5080891;28;20027;-76
2023/12/03 01:43:32;;;;;;;52.15;26.98;;;1.90;99.90;;;;;;5079754;28;20036;-76
2023/12/03 01:45:57;;;;;;;47.65;24.65;;;1.90;99.90;;;;;;5075391;28;20027;-76
2023/12/03 01:48:25;;;;;;;53.13;26.80;;;2.00;99.90;;;;;;5071793;28;20032;-76
2023/12/03 01:50:51;;;;;;;54.05;26.95;;;1.90;99.90;;;;;;5084388;28;20009;-76
2023/12/03 01:53:18;;;;;;;53.58;26.80;;;2.00;99.90;;;;;;5080371;28;20021;-76
2023/12/03 01:55:44;;;;;;;55.45;26.67;;;1.90;99.90;;;;;;5078422;28;20379;-76
2023/12/03 01:58:09;;;;;;;50.60;26.80;;;1.90;99.90;;;;;;5063835;28;20025;-76
2023/12/03 02:00:35;;;;;;;56.25;28.13;;;1.90;99.90;;;;;;5075808;28;20028;-76
2023/12/03 02:03:01;;;;;;;52.13;28.13;;;1.90;99.90;;;;;;5080568;28;20032;-76
2023/12/03 02:05:26;;;;;;;53.50;28.38;;;1.90;99.90;;;;;;5075923;28;20081;-76
2023/12/03 02:07:52;;;;;;;50.40;27.58;;;1.90;99.90;;;;;;5077008;28;20560;-76
2023/12/03 02:10:17;;;;;;;50.15;27.50;;;1.90;99.90;;;;;;5068287;28;20051;-76
2023/12/03 02:12:43;;;;;;;55.38;29.67;;;1.90;99.90;;;;;;5073799;28;20438;-76
2023/12/03 02:15:09;;;;;;;54.22;29.88;;;1.90;99.90;;;;;;5077532;28;20048;-76
2023/12/03 02:17:35;;;;;;;53.58;28.33;;;1.80;99.90;;;;;;5074378;28;20387;-76
2023/12/03 02:20:01;;;;;;;50.63;28.70;;;1.80;99.90;;;;;;5083367;28;20393;-76
2023/12/03 02:22:26;;;;;;;53.38;29.40;;;1.80;99.90;;;;;;5068703;28;20111;-76
2023/12/03 02:24:52;;;;;;;54.55;30.15;;;1.80;99.90;;;;;;5073097;28;20376;-76
2023/12/03 02:27:17;;;;;;;56.58;29.88;;;1.70;99.90;;;;;;5064781;28;20156;-76
2023/12/03 02:29:47;;;;;;;53.30;29.33;;;1.70;99.90;;;;;;5068802;28;20021;-76
2023/12/03 02:32:13;;;;;;;54.58;30.02;;;1.70;99.90;;;;;;5063243;28;20033;-76
2023/12/03 02:34:39;;;;;;;54.33;30.35;;;1.70;99.90;;;;;;5058265;28;20381;-76
2023/12/03 02:37:04;;;;;;;53.95;29.92;;;1.60;99.90;;;;;;5070305;28;20067;-76
2023/12/03 02:39:30;;;;;;;52.03;29.30;;;1.60;99.90;;;;;;5063624;28;20025;-76
2023/12/03 02:41:55;;;;;;;54.90;30.88;;;1.60;99.90;;;;;;5079323;28;20470;-76
2023/12/03 02:44:21;;;;;;;55.30;31.00;;;1.60;99.90;;;;;;5077005;28;20033;-76
2023/12/03 02:46:46;;;;;;;56.78;30.92;;;1.50;99.90;;;;;;5056932;28;20025;-77
2023/12/03 02:49:12;;;;;;;55.92;31.90;;;1.50;99.90;;;;;;5072059;28;20050;-76
2023/12/03 02:51:37;;;;;;;54.17;29.90;;;1.50;99.90;;;;;;5061811;28;20032;-76
2023/12/03 02:54:03;;;;;;;56.53;31.90;;;1.50;99.90;;;;;;5070082;28;20551;-76
2023/12/03 02:56:28;;;;;;;55.63;30.38;;;1.40;99.90;;;;;;5089288;28;20047;-77
2023/12/03 02:58:54;;;;;;;56.95;31.27;;;1.40;99.90;;;;;;5072529;28;20081;-76
2023/12/03 03:01:19;;;;;;;57.42;31.45;;;1.40;99.90;;;;;;5070068;28;20538;-76
2023/12/03 03:03:45;;;;;;;56.83;30.77;;;1.40;99.90;;;;;;5070117;28;20044;-76
2023/12/03 03:06:11;;;;;;;55.10;30.50;;;1.40;99.90;;;;;;5064830;28;20031;-76
2023/12/03 03:08:36;;;;;;;57.92;31.48;;;1.40;99.90;;;;;;5057331;28;20127;-76
2023/12/03 03:11:02;;;;;;;58.08;31.52;;;1.30;99.90;;;;;;5059640;28;20021;-77
2023/12/03 03:13:27;;;;;;;58.63;31.27;;;1.30;99.90;;;;;;5061579;28;20527;-76
2023/12/03 03:15:53;;;;;;;57.45;29.77;;;1.30;99.90;;;;;;5063166;28;20048;-76
2023/12/03 03:18:18;;;;;;;59.45;31.55;;;1.30;99.90;;;;;;5079008;28;20077;-76
2023/12/03 03:20:44;;;;;;;59.85;30.60;;;1.30;99.90;;;;;;5061113;28;20028;-76
2023/12/03 03:23:09;;;;;;;64.72;32.33;;;1.30;99.90;;;;;;5066425;28;20039;-76
2023/12/03 03:25:35;;;;;;;58.47;31.15;;;1.30;99.90;;;;;;5060489;28;20124;-76
2023/12/03 03:28:00;;;;;;;61.25;31.73;;;1.20;99.90;;;;;;5071611;28;20024;-77
2023/12/03 03:30:26;;;;;;;63.15;31.08;;;1.20;99.90;;;;;;5088669;28;20095;-76
2023/12/03 03:32:51;;;;;;;63.95;31.00;;;1.20;99.90;;;;;;5073994;28;20028;-76
2023/12/03 03:35:17;;;;;;;65.53;31.98;;;1.20;99.90;;;;;;5074409;28;20035;-76
2023/12/03 03:37:43;;;;;;;63.55;31.50;;;1.20;99.90;;;;;;5069472;28;20029;-76
2023/12/03 03:40:09;;;;;;;65.18;32.40;;;1.20;99.90;;;;;;5069645;28;20020;-76
2023/12/03 03:42:34;;;;;;;65.97;32.33;;;1.20;99.90;;;;;;5074209;28;20105;-76
2023/12/03 03:45:00;;;;;;;66.85;31.95;;;1.20;99.90;;;;;;5054720;28;20029;-76
2023/12/03 03:47:25;;;;;;;68.93;32.60;;;1.20;99.90;;;;;;5061010;28;20312;-76
2023/12/03 03:49:51;;;;;;;65.28;32.22;;;1.10;99.90;;;;;;5074876;28;20028;-77
2023/12/03 03:52:16;;;;;;;64.57;32.05;;;1.20;99.90;;;;;;5083018;28;20484;-77
2023/12/03 03:54:42;;;;;;;65.45;31.95;;;1.10;99.90;;;;;;5078956;28;20082;-77
2023/12/03 03:57:08;;;;;;;68.13;31.30;;;1.10;99.90;;;;;;5074384;28;20024;-77
2023/12/03 03:59:33;;;;;;;72.05;31.60;;;1.10;99.90;;;;;;5065771;28;20082;-77
2023/12/03 04:01:59;;;;;;;72.60;31.65;;;1.10;99.90;;;;;;5075374;28;20443;-77
2023/12/03 04:04:24;;;;;;;68.70;31.88;;;1.10;99.90;;;;;;5087305;28;20028;-77
2023/12/03 04:06:50;;;;;;;71.97;32.63;;;1.10;99.90;;;;;;5067335;28;20031;-77
2023/12/03 04:09:15;;;;;;;70.10;32.83;;;1.10;99.90;;;;;;5064990;28;20017;-78
2023/12/03 04:11:42;;;;;;;75.93;34.10;;;1.10;99.90;;;;;;5071336;28;20021;-77
2023/12/03 04:14:08;;;;;;;77.00;32.72;;;1.10;99.90;;;;;;5087881;28;20423;-77
2023/12/03 04:16:34;;;;;;;78.15;32.22;;;1.10;99.90;;;;;;5069362;28;20556;-78
2023/12/03 04:19:01;;;;;;;70.38;31.05;;;1.10;99.90;;;;;;5070696;28;20024;-77
2023/12/03 04:21:26;;;;;;;73.82;32.40;;;1.10;99.90;;;;;;5081422;28;20344;-77
2023/12/03 04:23:52;;;;;;;78.32;33.47;;;1.10;99.90;;;;;;5070300;28;20069;-77
2023/12/03 04:26:17;;;;;;;80.18;32.88;;;1.10;99.90;;;;;;5080970;28;20480;-77
2023/12/03 04:28:43;;;;;;;75.13;32.53;;;1.10;99.90;;;;;;5072541;28;20021;-77
2023/12/03 04:31:35;;;;;;;80.75;34.53;;;1.10;99.90;;;;;;5072667;28;20040;-78
2023/12/03 04:34:01;;;;;;;74.82;32.42;;;1.10;99.90;;;;;;5057500;28;20088;-78
2023/12/03 04:36:27;;;;;;;74.13;32.72;;;1.10;99.90;;;;;;5073269;28;20509;-77
2023/12/03 04:38:55;;;;;;;77.95;33.10;;;1.10;99.90;;;;;;5073598;28;20474;-78
2023/12/03 04:41:22;;;;;;;71.60;31.80;;;1.00;99.90;;;;;;5077415;28;20080;-78
2023/12/03 04:43:47;;;;;;;74.38;32.78;;;1.00;99.90;;;;;;5067393;28;20033;-78
2023/12/03 04:46:13;;;;;;;74.90;32.63;;;1.00;99.90;;;;;;5077881;28;20039;-77
2023/12/03 04:48:40;;;;;;;69.40;31.00;;;1.00;99.90;;;;;;5071216;28;20328;-77
2023/12/03 04:51:06;;;;;;;73.97;32.38;;;1.00;99.90;;;;;;5072430;28;20027;-77
2023/12/03 04:53:31;;;;;;;71.80;31.27;;;1.00;99.90;;;;;;5065667;28;20025;-78
2023/12/03 04:55:57;;;;;;;77.45;33.47;;;1.00;99.90;;;;;;5067500;28;20047;-78
2023/12/03 04:58:23;;;;;;;74.63;31.77;;;1.00;99.90;;;;;;5089465;28;20024;-77
2023/12/03 05:00:48;;;;;;;72.93;31.55;;;1.00;99.90;;;;;;5073372;28;20548;-78
2023/12/03 05:03:14;;;;;;;70.55;31.80;;;0.90;99.90;;;;;;5075939;28;20099;-78
2023/12/03 05:05:40;;;;;;;73.72;31.20;;;0.90;99.90;;;;;;5065556;28;20036;-77
2023/12/03 05:08:06;;;;;;;76.75;32.30;;;0.90;99.90;;;;;;5054687;28;20271;-78
2023/12/03 05:10:31;;;;;;;75.65;32.35;;;0.90;99.90;;;;;;5061209;28;20029;-77
2023/12/03 05:12:57;;;;;;;77.15;32.50;;;0.90;99.90;;;;;;5080393;28;20019;-77
2023/12/03 05:15:23;;;;;;;76.43;32.40;;;0.90;99.90;;;;;;5081368;28;20549;-78
2023/12/03 05:17:48;;;;;;;84.97;33.35;;;0.90;99.90;;;;;;5055398;28;20021;-78
2023/12/03 05:20:14;;;;;;;77.15;33.08;;;0.90;99.90;;;;;;5073005;28;20074;-77
2023/12/03 05:22:40;;;;;;;72.68;31.85;;;0.90;99.90;;;;;;5081867;28;20036;-78
2023/12/03 05:25:06;;;;;;;81.07;33.20;;;0.90;99.90;;;;;;5066132;28;20098;-78
2023/12/03 05:27:32;;;;;;;79.70;31.83;;;0.90;99.90;;;;;;5073627;28;20386;-77
2023/12/03 05:29:58;;;;;;;78.05;32.53;;;0.90;99.90;;;;;;5067555;28;20015;-78
2023/12/03 05:32:23;;;;;;;84.90;35.08;;;0.90;99.90;;;;;;5079353;28;20020;-77
2023/12/03 05:34:49;;;;;;;87.00;35.65;;;0.90;99.90;;;;;;5078460;28;20027;-77
2023/12/03 05:37:14;;;;;;;85.97;35.15;;;0.80;99.90;;;;;;5072712;28;20266;-78
2023/12/03 05:39:41;;;;;;;85.47;35.53;;;0.80;99.90;;;;;;5072019;28;20477;-78
2023/12/03 05:42:06;;;;;;;92.75;36.55;;;0.80;99.90;;;;;;5078358;28;20087;-77
2023/12/03 05:44:33;;;;;;;86.72;35.50;;;0.80;99.90;;;;;;5081630;28;20031;-78
2023/12/03 05:46:59;;;;;;;84.07;36.38;;;0.90;99.90;;;;;;5062008;28;20527;-77
2023/12/03 05:49:24;;;;;;;88.88;37.08;;;0.80;99.90;;;;;;5090724;28;20024;-78
2023/12/03 05:51:50;;;;;;;89.53;37.40;;;0.80;99.90;;;;;;5088162;28;20028;-78
2023/12/03 05:54:16;;;;;;;93.88;37.17;;;0.80;99.90;;;;;;5063008;28;20025;-77
2023/12/03 05:56:43;;;;;;;90.38;37.42;;;0.80;99.90;;;;;;5075947;28;20028;-77
2023/12/03 05:59:09;;;;;;;88.97;37.47;;;0.80;99.90;;;;;;5074813;28;20375;-77
2023/12/03 06:01:34;;;;;;;95.53;36.60;;;0.80;99.90;;;;;;5058478;28;20028;-77
2023/12/03 06:04:06;;;;;;;90.97;36.60;;;0.80;99.90;;;;;;5066475;28;20391;-77
2023/12/03 06:06:32;;;;;;;98.53;37.10;;;0.80;99.90;;;;;;5075447;28;20475;-78
2023/12/03 06:08:57;;;;;;;95.32;36.78;;;0.70;99.90;;;;;;5071098;28;20020;-78
2023/12/03 06:11:23;;;;;;;99.55;36.88;;;0.70;99.90;;;;;;5059129;28;20118;-77
2023/12/03 06:13:48;;;;;;;89.78;36.28;;;0.70;99.90;;;;;;5067624;28;20043;-77
2023/12/03 06:16:14;;;;;;;95.53;36.65;;;0.70;99.90;;;;;;5063811;28;20075;-78
2023/12/03 06:18:40;;;;;;;97.32;37.05;;;0.70;99.90;;;;;;5061892;28;20021;-77
2023/12/03 06:21:07;;;;;;;94.53;36.63;;;0.70;99.90;;;;;;5069718;28;20025;-78
2023/12/03 06:23:33;;;;;;;91.70;36.50;;;0.70;99.90;;;;;;5071389;28;20020;-77
2023/12/03 06:25:59;;;;;;;98.53;36.83;;;0.70;99.90;;;;;;5071136;28;20549;-77
2023/12/03 06:28:25;;;;;;;91.50;36.15;;;0.70;99.90;;;;;;5070896;28;20104;-77
2023/12/03 06:30:50;;;;;;;92.25;36.55;;;0.70;99.90;;;;;;5074612;28;20420;-77
2023/12/03 06:33:18;;;;;;;102.32;36.75;;;0.70;99.90;;;;;;5065848;28;20070;-78
2023/12/03 06:35:44;;;;;;;94.80;38.00;;;0.70;99.90;;;;;;5065085;28;20506;-77
2023/12/03 06:38:10;;;;;;;105.70;39.25;;;0.70;99.90;;;;;;5065782;28;20380;-77
2023/12/03 06:40:36;;;;;;;99.97;39.67;;;0.70;99.90;;;;;;5068261;28;20027;-77
2023/12/03 06:43:01;;;;;;;94.55;37.63;;;0.70;99.90;;;;;;5063870;28;20016;-77
2023/12/03 06:45:27;;;;;;;92.82;35.58;;;0.70;99.90;;;;;;5059950;28;20025;-77
2023/12/03 06:47:52;;;;;;;95.00;36.33;;;0.70;99.90;;;;;;5055514;28;20100;-77
2023/12/03 06:50:18;;;;;;;93.88;37.90;;;0.60;99.90;;;;;;5066431;28;20627;-77
2023/12/03 06:52:44;;;;;;;104.65;38.88;;;0.70;99.90;;;;;;5066612;28;20032;-77
2023/12/03 06:55:09;;;;;;;100.13;37.53;;;0.60;99.90;;;;;;5070780;28;20028;-77
2023/12/03 06:57:35;;;;;;;98.57;37.95;;;0.60;99.90;;;;;;5063046;28;20104;-77
2023/12/03 07:00:00;;;;;;;102.60;38.25;;;0.60;99.90;;;;;;5063165;28;20024;-77
2023/12/03 07:02:26;;;;;;;97.53;36.60;;;0.60;99.90;;;;;;5060106;28;20017;-76
2023/12/03 07:04:52;;;;;;;99.25;37.72;;;0.60;99.90;;;;;;5068205;28;20065;-76
2023/12/03 07:07:17;;;;;;;99.05;36.65;;;0.60;99.90;;;;;;5058291;28;20523;-76
2023/12/03 07:09:43;;;;;;;95.63;37.10;;;0.60;99.90;;;;;;5065314;28;20037;-77
2023/12/03 07:12:08;;;;;;;97.82;37.20;;;0.60;99.90;;;;;;5063544;28;20396;-77
2023/12/03 07:14:34;;;;;;;97.95;38.28;;;0.60;99.90;;;;;;5061407;28;20056;-77
2023/12/03 07:16:59;;;;;;;105.03;39.25;;;0.60;99.90;;;;;;5060362;28;20107;-77
2023/12/03 07:19:25;;;;;;;100.82;37.08;;;0.60;99.90;;;;;;5066029;28;20032;-76
2023/12/03 07:21:51;;;;;;;96.47;37.45;;;0.60;99.90;;;;;;5079544;28;20122;-77
2023/12/03 07:24:16;;;;;;;101.18;38.05;;;0.60;99.90;;;;;;5070175;28;20021;-76
2023/12/03 07:26:45;;;;;;;102.15;38.00;;;0.60;99.90;;;;;;5070394;28;20025;-76
2023/12/03 07:29:10;;;;;;;98.10;37.30;;;0.60;99.90;;;;;;5077018;28;20107;-76
2023/12/03 07:31:36;;;;;;;98.00;37.55;;;0.60;99.90;;;;;;5073456;28;20070;-76
2023/12/03 07:34:01;;;;;;;98.55;38.72;;;0.60;99.90;;;;;;5073564;28;20020;-76
2023/12/03 07:36:27;;;;;;;99.78;37.28;;;0.60;99.90;;;;;;5080516;28;20017;-76
2023/12/03 07:38:52;;;;;;;90.47;36.47;;;0.60;99.90;;;;;;5080302;28;20020;-76
2023/12/03 07:41:18;;;;;;;93.82;35.95;;;0.60;99.90;;;;;;5079149;28;20497;-76
2023/12/03 07:43:43;;;;;;;101.32;36.47;;;0.50;99.90;;;;;;5079356;28;20392;-77
2023/12/03 07:46:16;;;;;;;100.00;36.20;;;0.60;99.90;;;;;;5085900;28;20020;-77
2023/12/03 07:48:42;;;;;;;97.03;37.13;;;0.60;99.90;;;;;;5077998;28;20023;-76
2023/12/03 07:51:11;;;;;;;93.53;35.08;;;0.60;99.90;;;;;;5063603;28;20021;-76
2023/12/03 07:53:37;;;;;;;95.00;35.85;;;0.60;99.90;;;;;;5070947;28;20522;-76
2023/12/03 07:56:03;;;;;;;94.28;35.70;;;0.60;99.90;;;;;;5063262;28;20098;-76
2023/12/03 07:58:29;;;;;;;92.57;34.13;;;0.60;99.90;;;;;;5066460;28;20009;-76
2023/12/03 08:00:54;;;;;;;95.38;35.53;;;0.60;99.90;;;;;;5059779;28;20032;-76
2023/12/03 08:03:20;;;;;;;101.55;36.95;;;0.60;99.90;;;;;;5065039;28;20032;-76
2023/12/03 08:05:45;;;;;;;86.70;34.00;;;0.60;99.90;;;;;;5066368;28;20040;-76
2023/12/03 08:08:11;;;;;;;97.53;35.97;;;0.60;99.90;;;;;;5074810;28;20021;-76
2023/12/03 08:10:37;;;;;;;91.10;35.78;;;0.60;99.90;;;;;;5086350;28;20052;-76
2023/12/03 08:13:02;;;;;;;92.60;35.63;;;0.60;99.90;;;;;;5081769;28;20020;-76
2023/12/03 08:15:28;;;;;;;95.20;36.33;;;0.60;99.90;;;;;;5062587;28;20637;-76
2023/12/03 08:17:53;;;;;;;93.57;34.63;;;0.60;99.90;;;;;;5069124;28;20024;-76
2023/12/03 08:20:19;;;;;;;95.40;35.47;;;0.70;99.90;;;;;;5073286;28;20034;-76
2023/12/03 08:22:44;;;;;;;85.05;34.33;;;0.70;99.90;;;;;;5072908;28;20078;-76
2023/12/03 08:25:10;;;;;;;85.45;33.17;;;0.70;99.90;;;;;;5074165;28;20391;-76
2023/12/03 08:27:35;;;;;;;93.13;35.40;;;0.70;99.90;;;;;;5073787;28;20108;-76
2023/12/03 08:30:01;;;;;;;84.95;33.25;;;0.70;99.90;;;;;;5056719;28;20052;-76
2023/12/03 08:32:27;;;;;;;93.45;33.88;;;0.70;99.90;;;;;;5077361;28;20028;-77
2023/12/03 08:34:52;;;;;;;86.97;33.92;;;0.70;99.90;;;;;;5080964;28;20024;-77
2023/12/03 08:37:18;;;;;;;83.90;33.38;;;0.80;99.90;;;;;;5077498;28;20478;-76
2023/12/03 08:39:44;;;;;;;87.65;33.47;;;0.80;99.90;;;;;;5061496;28;20013;-76
2023/12/03 08:42:09;;;;;;;80.88;31.95;;;0.80;99.90;;;;;;5073602;28;20021;-76
2023/12/03 08:44:35;;;;;;;80.72;32.15;;;0.80;99.90;;;;;;5075184;28;20035;-76
2023/12/03 08:47:01;;;;;;;83.47;32.55;;;0.80;99.90;;;;;;5063282;28;20383;-76
2023/12/03 08:49:27;;;;;;;78.88;30.95;;;0.90;99.90;;;;;;5064467;28;20013;-77
2023/12/03 08:51:52;;;;;;;82.20;29.42;;;0.90;99.90;;;;;;5066799;28;20104;-75
2023/12/03 08:54:18;;;;;;;82.28;30.55;;;0.90;99.90;;;;;;5074820;28;20043;-77
2023/12/03 08:56:43;;;;;;;74.63;29.90;;;1.00;99.90;;;;;;5054225;28;20387;-77
2023/12/03 08:59:09;;;;;;;75.68;29.52;;;1.00;99.90;;;;;;5056101;28;21217;-77
2023/12/03 09:01:39;;;;;;;75.18;29.08;;;1.00;99.90;;;;;;5071087;28;20032;-76
2023/12/03 09:04:04;;;;;;;68.88;28.80;;;1.10;99.90;;;;;;5073520;28;20048;-77
2023/12/03 09:06:30;;;;;;;69.05;28.13;;;1.10;99.90;;;;;;5064694;28;20086;-76
2023/12/03 09:08:56;;;;;;;63.53;26.52;;;1.10;99.90;;;;;;5065375;28;20586;-76
2023/12/03 09:11:31;;;;;;;66.78;27.50;;;1.10;99.90;;;;;;5075523;28;20367;-77
2023/12/03 09:13:56;;;;;;;62.92;25.98;;;1.10;99.90;;;;;;5081206;28;20105;-76
2023/12/03 09:16:23;;;;;;;70.85;28.35;;;1.20;99.90;;;;;;5079803;28;20551;-77
2023/12/03 09:18:48;;;;;;;62.30;26.27;;;1.20;99.90;;;;;;5073907;28;20052;-77
2023/12/03 09:21:14;;;;;;;58.78;25.30;;;1.20;99.90;;;;;;5063366;28;20040;-78
2023/12/03 09:23:40;;;;;;;57.00;24.35;;;1.20;99.90;;;;;;5063940;28;20021;-79
2023/12/03 09:26:06;;;;;;;54.13;24.52;;;1.30;99.90;;;;;;5077178;28;20028;-77
2023/12/03 09:28:32;;;;;;;54.10;24.30;;;1.30;99.90;;;;;;5072752;28;20494;-77
2023/12/03 09:30:58;;;;;;;54.58;23.95;;;1.30;99.90;;;;;;5074266;28;20020;-77
2023/12/03 09:33:28;;;;;;;53.47;24.25;;;1.30;99.90;;;;;;5072763;28;20017;-78
2023/12/03 09:35:56;;;;;;;50.97;22.73;;;1.30;99.90;;;;;;5069792;28;20023;-78
2023/12/03 09:38:22;;;;;;;53.53;22.88;;;1.30;99.90;;;;;;5071911;28;20365;-77
2023/12/03 09:40:48;;;;;;;49.90;21.63;;;1.40;99.90;;;;;;5073958;28;20100;-78
2023/12/03 09:43:18;;;;;;;52.97;22.83;;;1.40;99.90;;;;;;5078729;28;20028;-78
2023/12/03 09:45:45;;;;;;;52.92;22.02;;;1.40;99.90;;;;;;5078297;28;20028;-77
2023/12/03 09:48:13;;;;;;;52.17;21.85;;;1.40;99.90;;;;;;5083454;28;20042;-77
2023/12/03 09:50:42;;;;;;;45.05;20.45;;;1.40;99.90;;;;;;5085776;28;20033;-78
2023/12/03 09:53:11;;;;;;;46.63;19.77;;;1.40;99.90;;;;;;5073272;28;20450;-77
2023/12/03 09:55:39;;;;;;;48.35;21.00;;;1.40;99.90;;;;;;5073311;28;20054;-78
2023/12/03 09:58:08;;;;;;;48.10;20.13;;;1.40;99.90;;;;;;5085876;28;20046;-78
2023/12/03 10:00:39;;;;;;;44.72;19.92;;;1.50;99.90;;;;;;5067030;28;20452;-77
2023/12/03 10:03:05;;;;;;;43.50;19.60;;;1.50;99.90;;;;;;5071979;28;20248;-77
2023/12/03 10:05:31;;;;;;;42.22;18.80;;;1.50;99.90;;;;;;5061744;28;20040;-77
2023/12/03 10:07:58;;;;;;;42.03;17.63;;;1.40;99.90;;;;;;5071741;28;20028;-77
2023/12/03 10:10:31;;;;;;;41.05;18.98;;;1.50;99.90;;;;;;5068000;28;20406;-77
2023/12/03 10:12:58;;;;;;;44.63;18.80;;;1.50;99.90;;;;;;5060539;28;20017;-75
2023/12/03 10:15:24;;;;;;;39.75;18.13;;;1.50;99.90;;;;;;5076454;28;20147;-75
2023/12/03 10:17:50;;;;;;;41.67;19.48;;;1.50;99.90;;;;;;5053551;28;20013;-75
2023/12/03 10:20:21;;;;;;;43.90;18.23;;;1.50;99.90;;;;;;5055925;28;20486;-75
2023/12/03 10:22:50;;;;;;;46.17;18.90;;;1.50;99.90;;;;;;5055764;28;20021;-75
2023/12/03 10:25:30;;;;;;;46.40;19.27;;;1.50;99.90;;;;;;5056752;28;20031;-75
2023/12/03 10:27:57;;;;;;;43.97;18.95;;;1.50;99.90;;;;;;5070617;28;20031;-75
2023/12/03 10:30:23;;;;;;;38.45;17.92;;;1.60;99.90;;;;;;5070234;28;20013;-75
2023/12/03 10:32:49;;;;;;;40.78;18.00;;;1.60;99.90;;;;;;5060528;28;20016;-75
2023/12/03 10:35:15;;;;;;;39.45;18.05;;;1.60;99.90;;;;;;5061491;28;20025;-75
2023/12/03 10:37:41;;;;;;;40.72;18.15;;;1.60;99.90;;;;;;5060548;28;20431;-75
2023/12/03 10:40:07;;;;;;;38.20;17.60;;;1.60;99.90;;;;;;5065527;28;20021;-75
2023/12/03 10:42:37;;;;;;;38.40;18.00;;;1.60;99.90;;;;;;5066288;28;20021;-75
2023/12/03 10:45:13;;;;;;;41.28;18.20;;;1.60;99.90;;;;;;5077636;28;20024;-76
2023/12/03 10:47:39;;;;;;;41.40;17.75;;;1.60;99.90;;;;;;5057970;28;20085;-75
2023/12/03 10:50:06;;;;;;;38.60;17.35;;;1.60;99.90;;;;;;5068741;28;20021;-76
2023/12/03 10:52:33;;;;;;;33.90;17.13;;;1.60;99.90;;;;;;5066745;28;20027;-75
2023/12/03 10:54:59;;;;;;;36.88;17.00;;;1.60;99.90;;;;;;5068374;28;20025;-75
2023/12/03 10:57:29;;;;;;;38.08;17.45;;;1.60;99.90;;;;;;5058792;28;20033;-75
2023/12/03 11:00:10;;;;;;;37.10;17.98;;;1.70;99.90;;;;;;5073211;28;20356;-75
2023/12/03 11:02:46;;;;;;;37.80;17.13;;;1.70;99.90;;;;;;5067392;28;20605;-75
2023/12/03 11:05:34;;;;;;;38.70;17.33;;;1.70;99.90;;;;;;5056922;28;20095;-75
2023/12/03 11:08:02;;;;;;;34.20;16.45;;;1.80;99.90;;;;;;5070888;28;20029;-75
2023/12/03 11:10:28;;;;;;;37.55;17.33;;;1.80;99.90;;;;;;5076670;28;20403;-75
2023/12/03 11:12:54;;;;;;;38.22;17.23;;;1.80;99.90;;;;;;5056256;28;20027;-75
2023/12/03 11:15:21;;;;;;;38.70;17.25;;;1.90;99.90;;;;;;5077728;28;20056;-75
2023/12/03 11:17:50;;;;;;;37.58;16.80;;;1.90;99.90;;;;;;5059163;28;20020;-76
2023/12/03 11:20:23;;;;;;;35.58;16.40;;;1.90;99.90;;;;;;5069850;28;20024;-75
2023/12/03 11:23:00;;;;;;;34.45;16.15;;;1.90;99.90;;;;;;5067576;28;20059;-75
2023/12/03 11:25:35;;;;;;;36.25;16.45;;;2.00;99.90;;;;;;5061786;28;20036;-75
2023/12/03 11:28:00;;;;;;;36.00;17.13;;;2.00;99.90;;;;;;5069439;28;20039;-75
2023/12/03 11:30:37;;;;;;;34.90;16.23;;;2.00;99.90;;;;;;5069180;28;20618;-75
2023/12/03 11:33:12;;;;;;;36.50;16.00;;;2.10;99.90;;;;;;5068602;28;20025;-75
2023/12/03 11:35:42;;;;;;;;;;;2.10;99.90;;;;;;5070115;28;20089;-75
2023/12/03 11:38:20;;;;;;;38.08;16.10;;;2.10;99.90;;;;;;5066400;28;19954;-75
2023/12/03 11:40:45;;;;;;;35.60;14.95;;;2.20;99.90;;;;;;5076997;28;20070;-75
2023/12/03 11:43:25;;;;;;;34.53;15.40;;;2.30;99.90;;;;;;5069174;28;20036;-76
2023/12/03 11:45:51;;;;;;;33.28;14.43;;;2.30;99.90;;;;;;5065846;28;20021;-75
2023/12/03 11:48:18;;;;;;;36.25;15.57;;;2.40;99.90;;;;;;5065993;28;20020;-76
2023/12/03 11:50:48;;;;;;;33.13;14.35;;;2.40;99.90;;;;;;5075150;28;20078;-75
2023/12/03 11:53:15;;;;;;;31.60;14.50;;;2.50;99.90;;;;;;5068367;28;20097;-76
2023/12/03 11:55:45;;;;;;;33.22;15.57;;;2.50;99.90;;;;;;5081713;28;20032;-76
2023/12/03 11:58:11;;;;;;;31.08;14.75;;;2.60;99.90;;;;;;5060913;28;20024;-75
2023/12/03 12:00:38;;;;;;;32.92;15.23;;;2.60;99.90;;;;;;5057895;28;20047;-76
2023/12/03 12:03:06;;;;;;;31.52;14.32;;;2.70;99.90;;;;;;5071689;28;20044;-76
2023/12/03 12:05:33;;;;;;;31.98;14.90;;;2.70;99.90;;;;;;5081975;28;20055;-76
2023/12/03 12:08:03;;;;;;;30.23;14.50;;;2.70;99.90;;;;;;5083599;28;20394;-80
2023/12/03 12:10:31;;;;;;;33.55;15.32;;;2.70;99.90;;;;;;5075959;28;20021;-75
2023/12/03 12:13:03;;;;;;;30.25;14.40;;;2.70;99.90;;;;;;5074072;28;20062;-75
2023/12/03 12:15:29;;;;;;;33.17;15.02;;;2.60;99.90;;;;;;5069824;28;20390;-75
2023/12/03 12:17:55;;;;;;;30.90;14.52;;;2.60;99.90;;;;;;5072155;28;20025;-75
2023/12/03 12:20:27;;;;;;;31.83;14.63;;;2.60;99.90;;;;;;5072381;28;20076;-75
2023/12/03 12:22:54;;;;;;;31.27;14.82;;;2.60;99.90;;;;;;5073820;28;20035;-75
2023/12/03 12:25:20;;;;;;;29.70;14.15;;;2.60;99.90;;;;;;5084579;28;20032;-75
2023/12/03 12:27:48;;;;;;;33.67;14.85;;;2.60;99.90;;;;;;5090429;28;20323;-75
2023/12/03 12:30:15;;;;;;;31.27;15.32;;;2.60;99.90;;;;;;5088868;28;20071;-75
2023/12/03 12:32:40;;;;;;;29.92;14.52;;;2.60;99.90;;;;;;5062038;28;20443;-75